sensor_id;sensor_type;location;lat;lon;timestamp;pressure;altitude;pressure_sealevel;temperature;humidity
68988;BME280;56038;46.080;11.116;2023-07-20T00:02:16;98907.91;;;21.32;100.00
68988;BME280;56038;46.080;11.116;2023-07-20T00:07:19;98903.00;;;21.37;100.00
68988;BME280;56038;46.080;11.116;2023-07-20T00:12:21;98885.66;;;21.33;100.00
68988;BME280;56038;46.080;11.116;2023-07-20T00:17:23;98889.72;;;21.37;100.00
68988;BME280;56038;46.080;11.116;2023-07-20T00:22:26;98881.75;;;21.37;100.00
68988;BME280;56038;46.080;11.116;2023-07-20T00:27:28;98903.69;;;21.29;100.00
68988;BME280;56038;46.080;11.116;2023-07-20T00:32:30;98904.94;;;21.15;100.00
68988;BME280;56038;46.080;11.116;2023-07-20T00:37:33;98913.72;;;21.06;100.00
68988;BME280;56038;46.080;11.116;2023-07-20T00:42:35;98941.00;;;21.18;100.00
68988;BME280;56038;46.080;11.116;2023-07-20T00:47:37;98931.31;;;20.98;100.00
68988;BME280;56038;46.080;11.116;2023-07-20T00:52:40;98923.22;;;21.09;100.00
68988;BME280;56038;46.080;11.116;2023-07-20T00:57:43;98913.47;;;21.00;100.00
68988;BME280;56038;46.080;11.116;2023-07-20T01:02:45;98935.69;;;21.08;100.00
68988;BME280;56038;46.080;11.116;2023-07-20T01:07:55;98917.78;;;21.20;100.00
68988;BME280;56038;46.080;11.116;2023-07-20T01:13:00;98900.34;;;21.27;100.00
68988;BME280;56038;46.080;11.116;2023-07-20T01:18:03;98919.78;;;21.28;100.00
68988;BME280;56038;46.080;11.116;2023-07-20T01:23:32;98922.28;;;21.29;100.00
68988;BME280;56038;46.080;11.116;2023-07-20T01:28:50;98922.16;;;21.31;100.00
68988;BME280;56038;46.080;11.116;2023-07-20T01:34:00;98912.91;;;21.25;100.00
68988;BME280;56038;46.080;11.116;2023-07-20T01:39:02;98917.94;;;21.28;100.00
68988;BME280;56038;46.080;11.116;2023-07-20T01:44:05;98919.91;;;21.26;100.00
68988;BME280;56038;46.080;11.116;2023-07-20T01:49:08;98928.41;;;21.20;100.00
68988;BME280;56038;46.080;11.116;2023-07-20T01:54:10;98922.81;;;21.23;100.00
68988;BME280;56038;46.080;11.116;2023-07-20T01:59:11;98918.25;;;21.25;100.00
68988;BME280;56038;46.080;11.116;2023-07-20T02:04:14;98913.31;;;21.20;100.00
68988;BME280;56038;46.080;11.116;2023-07-20T02:09:16;98920.59;;;21.18;100.00
68988;BME280;56038;46.080;11.116;2023-07-20T02:14:18;98913.03;;;21.14;100.00
68988;BME280;56038;46.080;11.116;2023-07-20T02:19:21;98907.00;;;21.12;100.00
68988;BME280;56038;46.080;11.116;2023-07-20T02:24:22;98903.41;;;21.03;100.00
68988;BME280;56038;46.080;11.116;2023-07-20T02:29:25;98910.38;;;20.94;100.00
68988;BME280;56038;46.080;11.116;2023-07-20T02:34:28;98912.03;;;20.86;100.00
68988;BME280;56038;46.080;11.116;2023-07-20T02:39:30;98910.75;;;20.80;100.00
68988;BME280;56038;46.080;11.116;2023-07-20T02:44:32;98916.78;;;20.73;100.00
68988;BME280;56038;46.080;11.116;2023-07-20T02:49:35;98917.19;;;20.68;100.00
68988;BME280;56038;46.080;11.116;2023-07-20T02:54:36;98914.53;;;20.68;100.00
68988;BME280;56038;46.080;11.116;2023-07-20T02:59:38;98913.56;;;20.69;100.00
68988;BME280;56038;46.080;11.116;2023-07-20T03:04:41;98919.25;;;20.64;100.00
68988;BME280;56038;46.080;11.116;2023-07-20T03:09:43;98915.06;;;20.62;100.00
68988;BME280;56038;46.080;11.116;2023-07-20T03:14:45;98928.19;;;20.63;100.00
68988;BME280;56038;46.080;11.116;2023-07-20T03:19:48;98932.50;;;20.55;100.00
68988;BME280;56038;46.080;11.116;2023-07-20T03:24:50;98932.19;;;20.48;100.00
68988;BME280;56038;46.080;11.116;2023-07-20T03:29:52;98923.53;;;20.46;100.00
68988;BME280;56038;46.080;11.116;2023-07-20T03:34:55;98929.34;;;20.40;100.00
68988;BME280;56038;46.080;11.116;2023-07-20T03:39:57;98931.31;;;20.38;100.00
68988;BME280;56038;46.080;11.116;2023-07-20T03:44:58;98930.72;;;20.34;100.00
68988;BME280;56038;46.080;11.116;2023-07-20T03:50:02;98936.03;;;20.34;100.00
68988;BME280;56038;46.080;11.116;2023-07-20T03:55:06;98936.28;;;20.31;100.00
68988;BME280;56038;46.080;11.116;2023-07-20T04:00:09;98939.41;;;20.37;100.00
68988;BME280;56038;46.080;11.116;2023-07-20T04:05:14;98948.44;;;20.34;100.00
68988;BME280;56038;46.080;11.116;2023-07-20T04:10:15;98947.75;;;20.32;100.00
68988;BME280;56038;46.080;11.116;2023-07-20T04:15:17;98955.06;;;20.40;100.00
68988;BME280;56038;46.080;11.116;2023-07-20T04:20:20;98945.88;;;20.44;100.00
68988;BME280;56038;46.080;11.116;2023-07-20T04:25:22;98953.84;;;20.44;100.00
68988;BME280;56038;46.080;11.116;2023-07-20T04:30:24;98960.34;;;20.40;100.00
68988;BME280;56038;46.080;11.116;2023-07-20T04:35:48;98954.81;;;20.43;100.00
68988;BME280;56038;46.080;11.116;2023-07-20T04:40:50;98960.34;;;20.40;100.00
68988;BME280;56038;46.080;11.116;2023-07-20T04:45:52;98967.09;;;20.44;100.00
68988;BME280;56038;46.080;11.116;2023-07-20T04:50:55;98966.25;;;20.43;100.00
68988;BME280;56038;46.080;11.116;2023-07-20T04:55:57;98961.72;;;20.34;100.00
68988;BME280;56038;46.080;11.116;2023-07-20T05:00:58;98958.94;;;20.36;100.00
68988;BME280;56038;46.080;11.116;2023-07-20T05:06:01;98961.25;;;20.50;100.00
68988;BME280;56038;46.080;11.116;2023-07-20T05:11:03;98971.06;;;20.59;100.00
68988;BME280;56038;46.080;11.116;2023-07-20T05:16:05;98969.72;;;20.74;100.00
68988;BME280;56038;46.080;11.116;2023-07-20T05:21:08;98980.94;;;20.87;100.00
68988;BME280;56038;46.080;11.116;2023-07-20T05:26:09;98970.88;;;20.91;100.00
68988;BME280;56038;46.080;11.116;2023-07-20T05:31:11;98973.28;;;21.04;100.00
68988;BME280;56038;46.080;11.116;2023-07-20T05:36:14;98974.00;;;21.15;100.00
68988;BME280;56038;46.080;11.116;2023-07-20T05:41:16;98980.72;;;21.19;100.00
68988;BME280;56038;46.080;11.116;2023-07-20T05:46:17;98969.25;;;21.29;100.00
68988;BME280;56038;46.080;11.116;2023-07-20T05:51:20;98978.50;;;21.44;100.00
68988;BME280;56038;46.080;11.116;2023-07-20T05:56:22;98974.28;;;21.61;100.00
68988;BME280;56038;46.080;11.116;2023-07-20T06:01:24;98981.28;;;21.71;100.00
68988;BME280;56038;46.080;11.116;2023-07-20T06:06:29;98976.53;;;21.85;100.00
68988;BME280;56038;46.080;11.116;2023-07-20T06:11:30;98971.47;;;21.91;100.00
68988;BME280;56038;46.080;11.116;2023-07-20T06:16:32;98964.00;;;22.04;100.00
68988;BME280;56038;46.080;11.116;2023-07-20T06:21:35;98970.03;;;22.16;100.00
68988;BME280;56038;46.080;11.116;2023-07-20T06:26:37;98959.09;;;22.29;100.00
68988;BME280;56038;46.080;11.116;2023-07-20T06:31:39;98967.13;;;22.47;99.38
68988;BME280;56038;46.080;11.116;2023-07-20T06:36:42;98967.63;;;22.60;98.95
68988;BME280;56038;46.080;11.116;2023-07-20T06:41:44;98964.19;;;22.77;98.02
68988;BME280;56038;46.080;11.116;2023-07-20T06:46:46;98954.56;;;22.94;96.58
68988;BME280;56038;46.080;11.116;2023-07-20T06:51:49;98955.06;;;23.07;95.13
68988;BME280;56038;46.080;11.116;2023-07-20T06:56:51;98948.06;;;23.06;94.06
68988;BME280;56038;46.080;11.116;2023-07-20T07:01:52;98948.13;;;23.14;93.37
68988;BME280;56038;46.080;11.116;2023-07-20T07:06:56;98942.63;;;23.34;92.03
68988;BME280;56038;46.080;11.116;2023-07-20T07:11:57;98937.00;;;23.37;90.48
68988;BME280;56038;46.080;11.116;2023-07-20T07:16:59;98936.91;;;23.46;90.23
68988;BME280;56038;46.080;11.116;2023-07-20T07:22:02;98929.91;;;23.63;89.23
68988;BME280;56038;46.080;11.116;2023-07-20T07:27:05;98927.69;;;23.76;88.73
68988;BME280;56038;46.080;11.116;2023-07-20T07:32:07;98930.44;;;23.93;87.66
68988;BME280;56038;46.080;11.116;2023-07-20T07:37:11;98927.03;;;24.08;86.96
68988;BME280;56038;46.080;11.116;2023-07-20T07:42:13;98919.72;;;24.10;86.32
68988;BME280;56038;46.080;11.116;2023-07-20T07:47:15;98918.44;;;24.23;85.21
68988;BME280;56038;46.080;11.116;2023-07-20T07:52:18;98920.03;;;24.33;85.21
68988;BME280;56038;46.080;11.116;2023-07-20T07:57:20;98911.59;;;24.46;84.22
68988;BME280;56038;46.080;11.116;2023-07-20T08:02:21;98917.00;;;24.62;82.92
68988;BME280;56038;46.080;11.116;2023-07-20T08:07:24;98904.16;;;24.74;82.27
68988;BME280;56038;46.080;11.116;2023-07-20T08:12:26;98900.16;;;24.70;78.54
68988;BME280;56038;46.080;11.116;2023-07-20T08:17:28;98900.66;;;24.73;79.32
68988;BME280;56038;46.080;11.116;2023-07-20T08:22:31;98888.69;;;24.94;79.34
68988;BME280;56038;46.080;11.116;2023-07-20T08:27:32;98892.06;;;25.20;78.10
68988;BME280;56038;46.080;11.116;2023-07-20T08:32:34;98886.06;;;25.26;78.08
68988;BME280;56038;46.080;11.116;2023-07-20T08:37:38;98871.53;;;25.45;77.58
68988;BME280;56038;46.080;11.116;2023-07-20T08:42:40;98864.31;;;25.70;76.14
68988;BME280;56038;46.080;11.116;2023-07-20T08:47:43;98860.47;;;25.81;75.06
68988;BME280;56038;46.080;11.116;2023-07-20T08:52:48;98851.91;;;25.93;74.37
68988;BME280;56038;46.080;11.116;2023-07-20T08:57:53;98855.41;;;25.94;72.74
68988;BME280;56038;46.080;11.116;2023-07-20T09:02:55;98855.03;;;26.05;72.92
68988;BME280;56038;46.080;11.116;2023-07-20T09:07:59;98839.16;;;26.43;72.09
68988;BME280;56038;46.080;11.116;2023-07-20T09:13:01;98831.75;;;26.76;71.09
68988;BME280;56038;46.080;11.116;2023-07-20T09:18:02;98827.56;;;27.04;70.20
68988;BME280;56038;46.080;11.116;2023-07-20T09:23:06;98821.47;;;27.33;68.29
68988;BME280;56038;46.080;11.116;2023-07-20T09:28:08;98812.56;;;27.70;67.12
68988;BME280;56038;46.080;11.116;2023-07-20T09:33:18;98814.13;;;27.94;63.22
68988;BME280;56038;46.080;11.116;2023-07-20T09:38:21;98804.00;;;28.41;64.08
68988;BME280;56038;46.080;11.116;2023-07-20T09:43:23;98799.41;;;28.77;61.75
68988;BME280;56038;46.080;11.116;2023-07-20T09:48:25;98790.63;;;29.05;60.03
68988;BME280;56038;46.080;11.116;2023-07-20T09:53:28;98785.97;;;29.48;58.11
68988;BME280;56038;46.080;11.116;2023-07-20T09:58:31;98775.06;;;29.91;57.81
68988;BME280;56038;46.080;11.116;2023-07-20T10:03:37;98770.25;;;30.27;54.78
68988;BME280;56038;46.080;11.116;2023-07-20T10:08:41;98767.06;;;30.65;53.56
68988;BME280;56038;46.080;11.116;2023-07-20T10:13:44;98765.22;;;30.92;52.93
68988;BME280;56038;46.080;11.116;2023-07-20T10:18:51;98751.97;;;31.30;51.83
68988;BME280;56038;46.080;11.116;2023-07-20T10:23:57;98756.50;;;31.49;49.04
68988;BME280;56038;46.080;11.116;2023-07-20T10:29:01;98745.41;;;31.71;49.76
68988;BME280;56038;46.080;11.116;2023-07-20T10:34:04;98746.28;;;31.65;50.31
68988;BME280;56038;46.080;11.116;2023-07-20T10:39:22;98743.44;;;31.07;48.46
68988;BME280;56038;46.080;11.116;2023-07-20T10:44:23;98729.81;;;31.86;49.78
68988;BME280;56038;46.080;11.116;2023-07-20T10:49:25;98722.78;;;32.61;47.92
68988;BME280;56038;46.080;11.116;2023-07-20T10:54:48;98714.69;;;33.11;44.36
68988;BME280;56038;46.080;11.116;2023-07-20T11:00:07;98706.75;;;32.91;44.17
68988;BME280;56038;46.080;11.116;2023-07-20T11:05:34;98699.38;;;33.85;42.88
68988;BME280;56038;46.080;11.116;2023-07-20T11:10:44;98695.25;;;34.12;43.39
68988;BME280;56038;46.080;11.116;2023-07-20T11:15:46;98685.59;;;33.50;43.71
68988;BME280;56038;46.080;11.116;2023-07-20T11:20:50;98686.88;;;33.04;41.97
68988;BME280;56038;46.080;11.116;2023-07-20T11:25:53;98669.47;;;33.73;39.23
68988;BME280;56038;46.080;11.116;2023-07-20T11:30:55;98666.78;;;33.55;41.90
68988;BME280;56038;46.080;11.116;2023-07-20T11:35:56;98655.78;;;33.68;40.60
68988;BME280;56038;46.080;11.116;2023-07-20T11:41:00;98651.94;;;33.94;39.92
68988;BME280;56038;46.080;11.116;2023-07-20T11:46:05;98645.53;;;33.88;39.31
68988;BME280;56038;46.080;11.116;2023-07-20T11:51:13;98630.19;;;34.42;37.54
68988;BME280;56038;46.080;11.116;2023-07-20T11:56:16;98627.03;;;34.80;39.06
68988;BME280;56038;46.080;11.116;2023-07-20T12:01:18;98621.47;;;34.22;36.63
68988;BME280;56038;46.080;11.116;2023-07-20T12:06:23;98612.97;;;34.07;37.16
68988;BME280;56038;46.080;11.116;2023-07-20T12:11:37;98606.97;;;35.05;36.23
68988;BME280;56038;46.080;11.116;2023-07-20T12:16:39;98606.00;;;35.23;37.21
68988;BME280;56038;46.080;11.116;2023-07-20T12:21:44;98597.03;;;35.22;37.51
68988;BME280;56038;46.080;11.116;2023-07-20T12:26:47;98588.66;;;35.35;35.89
68988;BME280;56038;46.080;11.116;2023-07-20T12:31:49;98581.72;;;35.56;36.45
68988;BME280;56038;46.080;11.116;2023-07-20T12:36:50;98583.81;;;36.40;35.34
68988;BME280;56038;46.080;11.116;2023-07-20T12:41:53;98573.44;;;35.91;33.57
68988;BME280;56038;46.080;11.116;2023-07-20T12:46:55;98561.59;;;35.69;34.12
68988;BME280;56038;46.080;11.116;2023-07-20T12:51:57;98559.06;;;36.41;33.34
68988;BME280;56038;46.080;11.116;2023-07-20T12:57:00;98561.50;;;36.59;32.06
68988;BME280;56038;46.080;11.116;2023-07-20T13:02:03;98561.69;;;35.34;33.89
68988;BME280;56038;46.080;11.116;2023-07-20T13:07:09;98541.13;;;35.95;34.33
68988;BME280;56038;46.080;11.116;2023-07-20T13:12:13;98539.91;;;36.70;33.13
68988;BME280;56038;46.080;11.116;2023-07-20T13:17:15;98545.41;;;37.84;32.08
68988;BME280;56038;46.080;11.116;2023-07-20T13:22:16;98539.06;;;37.08;33.30
68988;BME280;56038;46.080;11.116;2023-07-20T13:27:20;98533.00;;;36.28;34.19
68988;BME280;56038;46.080;11.116;2023-07-20T13:32:22;98528.38;;;36.63;34.22
68988;BME280;56038;46.080;11.116;2023-07-20T13:37:24;98532.31;;;37.10;33.75
68988;BME280;56038;46.080;11.116;2023-07-20T13:42:27;98524.75;;;36.57;33.53
68988;BME280;56038;46.080;11.116;2023-07-20T13:47:28;98538.66;;;35.65;33.87
68988;BME280;56038;46.080;11.116;2023-07-20T13:52:30;98527.16;;;36.53;33.57
68988;BME280;56038;46.080;11.116;2023-07-20T13:57:33;98542.13;;;37.33;32.62
68988;BME280;56038;46.080;11.116;2023-07-20T14:02:35;98532.75;;;34.52;36.94
68988;BME280;56038;46.080;11.116;2023-07-20T14:07:37;98534.41;;;33.47;39.51
68988;BME280;56038;46.080;11.116;2023-07-20T14:12:40;98533.84;;;32.65;41.37
68988;BME280;56038;46.080;11.116;2023-07-20T14:17:42;98524.78;;;32.34;43.66
68988;BME280;56038;46.080;11.116;2023-07-20T14:22:44;98528.94;;;32.37;44.59
68988;BME280;56038;46.080;11.116;2023-07-20T14:27:47;98534.16;;;32.32;45.48
68988;BME280;56038;46.080;11.116;2023-07-20T14:32:48;98521.81;;;31.86;47.73
68988;BME280;56038;46.080;11.116;2023-07-20T14:37:50;98513.03;;;32.47;45.45
68988;BME280;56038;46.080;11.116;2023-07-20T14:42:53;98501.28;;;32.35;45.75
68988;BME280;56038;46.080;11.116;2023-07-20T14:47:55;98499.78;;;32.14;46.73
68988;BME280;56038;46.080;11.116;2023-07-20T14:52:57;98506.50;;;32.55;45.59
68988;BME280;56038;46.080;11.116;2023-07-20T14:58:00;98504.09;;;33.38;44.02
68988;BME280;56038;46.080;11.116;2023-07-20T15:03:02;98490.03;;;33.48;44.23
68988;BME280;56038;46.080;11.116;2023-07-20T15:08:04;98495.22;;;34.03;41.81
68988;BME280;56038;46.080;11.116;2023-07-20T15:13:10;98477.81;;;34.10;43.29
68988;BME280;56038;46.080;11.116;2023-07-20T15:18:11;98468.97;;;34.38;42.86
68988;BME280;56038;46.080;11.116;2023-07-20T15:23:13;98469.16;;;34.95;41.66
68988;BME280;56038;46.080;11.116;2023-07-20T15:28:16;98463.63;;;35.19;41.27
68988;BME280;56038;46.080;11.116;2023-07-20T15:33:17;98461.47;;;35.04;39.53
68988;BME280;56038;46.080;11.116;2023-07-20T15:38:19;98458.44;;;34.77;41.68
68988;BME280;56038;46.080;11.116;2023-07-20T15:43:22;98448.44;;;34.54;42.29
68988;BME280;56038;46.080;11.116;2023-07-20T15:48:24;98439.59;;;34.59;41.83
68988;BME280;56038;46.080;11.116;2023-07-20T15:53:25;98450.88;;;34.79;41.86
68988;BME280;56038;46.080;11.116;2023-07-20T15:58:28;98446.31;;;34.21;42.50
68988;BME280;56038;46.080;11.116;2023-07-20T16:03:30;98451.88;;;34.26;43.14
68988;BME280;56038;46.080;11.116;2023-07-20T16:08:32;98446.31;;;34.21;42.82
68988;BME280;56038;46.080;11.116;2023-07-20T16:13:35;98440.78;;;34.04;43.31
68988;BME280;56038;46.080;11.116;2023-07-20T16:18:37;98435.88;;;33.59;44.47
68988;BME280;56038;46.080;11.116;2023-07-20T16:23:39;98426.53;;;32.84;47.12
68988;BME280;56038;46.080;11.116;2023-07-20T16:28:42;98436.81;;;32.13;49.19
68988;BME280;56038;46.080;11.116;2023-07-20T16:33:45;98442.25;;;31.88;50.13
68988;BME280;56038;46.080;11.116;2023-07-20T16:38:48;98430.13;;;31.66;50.99
68988;BME280;56038;46.080;11.116;2023-07-20T16:43:51;98433.94;;;31.58;51.34
68988;BME280;56038;46.080;11.116;2023-07-20T16:48:53;98438.53;;;31.51;52.60
68988;BME280;56038;46.080;11.116;2023-07-20T16:53:54;98435.25;;;31.49;51.65
68988;BME280;56038;46.080;11.116;2023-07-20T16:58:57;98435.00;;;31.51;51.53
68988;BME280;56038;46.080;11.116;2023-07-20T17:03:59;98443.03;;;31.33;52.59
68988;BME280;56038;46.080;11.116;2023-07-20T17:09:01;98427.19;;;31.05;53.42
68988;BME280;56038;46.080;11.116;2023-07-20T17:14:04;98428.81;;;31.06;53.48
68988;BME280;56038;46.080;11.116;2023-07-20T17:19:06;98435.75;;;30.88;54.14
68988;BME280;56038;46.080;11.116;2023-07-20T17:24:08;98430.06;;;30.65;55.01
68988;BME280;56038;46.080;11.116;2023-07-20T17:29:11;98427.84;;;30.29;56.42
68988;BME280;56038;46.080;11.116;2023-07-20T17:34:13;98420.81;;;29.95;57.74
68988;BME280;56038;46.080;11.116;2023-07-20T17:39:15;98422.69;;;29.61;58.66
68988;BME280;56038;46.080;11.116;2023-07-20T17:44:18;98422.84;;;29.33;59.92
68988;BME280;56038;46.080;11.116;2023-07-20T17:49:20;98429.84;;;29.08;60.78
68988;BME280;56038;46.080;11.116;2023-07-20T17:54:23;98425.03;;;28.90;60.97
68988;BME280;56038;46.080;11.116;2023-07-20T17:59:26;98417.72;;;28.77;61.69
68988;BME280;56038;46.080;11.116;2023-07-20T18:04:27;98426.72;;;28.56;62.44
68988;BME280;56038;46.080;11.116;2023-07-20T18:09:29;98415.09;;;28.49;62.86
68988;BME280;56038;46.080;11.116;2023-07-20T18:14:32;98426.69;;;28.50;62.34
68988;BME280;56038;46.080;11.116;2023-07-20T18:19:34;98432.44;;;28.47;62.56
68988;BME280;56038;46.080;11.116;2023-07-20T18:24:35;98439.00;;;28.38;62.71
68988;BME280;56038;46.080;11.116;2023-07-20T18:29:38;98440.94;;;28.22;63.31
68988;BME280;56038;46.080;11.116;2023-07-20T18:34:40;98442.13;;;28.13;63.89
68988;BME280;56038;46.080;11.116;2023-07-20T18:39:44;98439.59;;;28.05;64.37
68988;BME280;56038;46.080;11.116;2023-07-20T18:44:47;98444.13;;;28.04;63.89
68988;BME280;56038;46.080;11.116;2023-07-20T18:49:49;98449.88;;;27.95;64.48
68988;BME280;56038;46.080;11.116;2023-07-20T18:54:54;98442.72;;;27.81;64.93
68988;BME280;56038;46.080;11.116;2023-07-20T18:59:59;98459.78;;;27.73;65.56
68988;BME280;56038;46.080;11.116;2023-07-20T19:05:01;98462.81;;;27.63;66.08
68988;BME280;56038;46.080;11.116;2023-07-20T19:10:03;98471.84;;;27.62;65.60
68988;BME280;56038;46.080;11.116;2023-07-20T19:15:08;98488.25;;;27.53;66.83
68988;BME280;56038;46.080;11.116;2023-07-20T19:20:11;98495.97;;;27.41;67.29
68988;BME280;56038;46.080;11.116;2023-07-20T19:25:15;98495.53;;;27.37;67.37
68988;BME280;56038;46.080;11.116;2023-07-20T19:30:18;98515.75;;;27.40;67.10
68988;BME280;56038;46.080;11.116;2023-07-20T19:35:20;98522.09;;;27.32;68.04
68988;BME280;56038;46.080;11.116;2023-07-20T19:40:21;98527.56;;;27.24;68.35
68988;BME280;56038;46.080;11.116;2023-07-20T19:45:24;98537.72;;;27.14;69.29
68988;BME280;56038;46.080;11.116;2023-07-20T19:50:26;98532.50;;;27.06;70.05
68988;BME280;56038;46.080;11.116;2023-07-20T19:55:28;98532.31;;;27.07;69.26
68988;BME280;56038;46.080;11.116;2023-07-20T20:00:31;98541.09;;;27.01;69.78
68988;BME280;56038;46.080;11.116;2023-07-20T20:05:39;98544.78;;;26.85;70.94
68988;BME280;56038;46.080;11.116;2023-07-20T20:10:45;98537.66;;;26.93;70.05
68988;BME280;56038;46.080;11.116;2023-07-20T20:15:48;98544.84;;;26.77;71.61
68988;BME280;56038;46.080;11.116;2023-07-20T20:20:50;98551.41;;;26.60;72.36
68988;BME280;56038;46.080;11.116;2023-07-20T20:25:53;98563.59;;;26.48;73.37
68988;BME280;56038;46.080;11.116;2023-07-20T20:30:56;98562.56;;;26.49;72.84
68988;BME280;56038;46.080;11.116;2023-07-20T20:36:01;98571.72;;;26.40;73.23
68988;BME280;56038;46.080;11.116;2023-07-20T20:41:05;98580.50;;;26.25;74.63
68988;BME280;56038;46.080;11.116;2023-07-20T20:46:09;98570.50;;;26.05;75.41
68988;BME280;56038;46.080;11.116;2023-07-20T20:51:13;98573.63;;;26.08;74.93
68988;BME280;56038;46.080;11.116;2023-07-20T20:56:15;98576.88;;;26.18;74.17
68988;BME280;56038;46.080;11.116;2023-07-20T21:01:20;98593.06;;;26.02;76.25
68988;BME280;56038;46.080;11.116;2023-07-20T21:06:25;98584.97;;;25.87;77.23
68988;BME280;56038;46.080;11.116;2023-07-20T21:11:27;98590.03;;;25.82;76.10
68988;BME280;56038;46.080;11.116;2023-07-20T21:16:42;98596.56;;;25.80;77.41
68988;BME280;56038;46.080;11.116;2023-07-20T21:21:43;98596.47;;;25.73;75.67
68988;BME280;56038;46.080;11.116;2023-07-20T21:26:45;98598.13;;;25.66;75.50
68988;BME280;56038;46.080;11.116;2023-07-20T21:31:48;98600.25;;;25.48;75.23
68988;BME280;56038;46.080;11.116;2023-07-20T21:36:49;98608.38;;;25.54;74.35
68988;BME280;56038;46.080;11.116;2023-07-20T21:41:51;98615.00;;;25.35;75.52
68988;BME280;56038;46.080;11.116;2023-07-20T21:46:54;98598.50;;;25.32;75.31
68988;BME280;56038;46.080;11.116;2023-07-20T21:51:56;98584.81;;;25.27;75.40
68988;BME280;56038;46.080;11.116;2023-07-20T21:56:58;98587.78;;;25.32;74.72
68988;BME280;56038;46.080;11.116;2023-07-20T22:02:01;98593.22;;;25.16;76.43
68988;BME280;56038;46.080;11.116;2023-07-20T22:07:03;98599.94;;;25.03;77.17
68988;BME280;56038;46.080;11.116;2023-07-20T22:12:13;98603.25;;;25.05;76.85
68988;BME280;56038;46.080;11.116;2023-07-20T22:17:17;98610.78;;;25.02;77.36
68988;BME280;56038;46.080;11.116;2023-07-20T22:22:20;98616.78;;;25.04;77.04
68988;BME280;56038;46.080;11.116;2023-07-20T22:27:22;98621.63;;;24.92;78.04
68988;BME280;56038;46.080;11.116;2023-07-20T22:32:25;98619.84;;;24.85;78.43
68988;BME280;56038;46.080;11.116;2023-07-20T22:37:27;98642.22;;;24.75;79.70
68988;BME280;56038;46.080;11.116;2023-07-20T22:42:30;98650.22;;;24.75;79.73
68988;BME280;56038;46.080;11.116;2023-07-20T22:47:34;98653.22;;;24.72;79.84
68988;BME280;56038;46.080;11.116;2023-07-20T22:52:36;98651.41;;;24.73;79.83
68988;BME280;56038;46.080;11.116;2023-07-20T22:57:38;98627.53;;;24.71;79.91
68988;BME280;56038;46.080;11.116;2023-07-20T23:02:41;98630.38;;;24.70;79.97
68988;BME280;56038;46.080;11.116;2023-07-20T23:07:44;98645.41;;;24.55;80.91
68988;BME280;56038;46.080;11.116;2023-07-20T23:12:45;98656.41;;;24.43;81.16
68988;BME280;56038;46.080;11.116;2023-07-20T23:17:48;98657.94;;;24.38;81.35
68988;BME280;56038;46.080;11.116;2023-07-20T23:22:50;98642.56;;;24.40;81.01
68988;BME280;56038;46.080;11.116;2023-07-20T23:27:52;98656.25;;;24.37;81.04
68988;BME280;56038;46.080;11.116;2023-07-20T23:32:57;98671.75;;;24.17;82.31
68988;BME280;56038;46.080;11.116;2023-07-20T23:37:59;98667.03;;;24.03;83.09
68988;BME280;56038;46.080;11.116;2023-07-20T23:43:01;98678.06;;;24.00;83.46
68988;BME280;56038;46.080;11.116;2023-07-20T23:48:06;98669.03;;;24.09;83.49
68988;BME280;56038;46.080;11.116;2023-07-20T23:53:10;98695.06;;;24.07;83.34
68988;BME280;56038;46.080;11.116;2023-07-20T23:58:11;98697.56;;;24.00;83.34
